createdAt,value
2022-09-04T00:02:00.310Z,95014
2022-09-04T00:05:25.487Z,95015
2022-09-04T00:08:50.751Z,95016
2022-09-04T00:12:15.873Z,95017
2022-09-04T00:15:41.050Z,95015
2022-09-04T00:19:06.226Z,95022
2022-09-04T00:22:31.433Z,95026
2022-09-04T00:25:56.624Z,95025
2022-09-04T00:29:21.884Z,95027
2022-09-04T00:32:47.045Z,95029
2022-09-04T00:36:12.225Z,95030
2022-09-04T00:39:37.449Z,95029
2022-09-04T00:43:02.584Z,95034
2022-09-04T00:46:29.851Z,95038
2022-09-04T00:49:52.960Z,95037
2022-09-04T00:53:18.158Z,95038
2022-09-04T00:56:43.325Z,95038
2022-09-04T01:00:08.514Z,95038
2022-09-04T01:03:33.689Z,95040
2022-09-04T01:06:58.871Z,95046
2022-09-04T01:10:24.054Z,95051
2022-09-04T01:13:49.233Z,95051
2022-09-04T01:17:14.403Z,95055
2022-09-04T01:20:39.575Z,95056
2022-09-04T01:24:04.769Z,95052
2022-09-04T01:27:29.950Z,95058
2022-09-04T01:30:55.122Z,95061
2022-09-04T01:34:20.294Z,95062
2022-09-04T01:37:45.457Z,95061
2022-09-04T01:41:10.643Z,95067
2022-09-04T01:44:35.835Z,95070
2022-09-04T01:48:01.054Z,95064
2022-09-04T01:51:26.203Z,95064
2022-09-04T01:54:51.396Z,95065
2022-09-04T01:58:16.567Z,95069
2022-09-04T02:01:41.796Z,95073
2022-09-04T02:05:08.556Z,95069
2022-09-04T02:08:32.115Z,95065
2022-09-04T02:11:57.282Z,95067
2022-09-04T02:15:22.461Z,95073
2022-09-04T02:18:47.643Z,95071
2022-09-04T02:22:12.822Z,95077
2022-09-04T02:25:37.998Z,95076
2022-09-04T02:29:03.185Z,95075
2022-09-04T02:32:28.346Z,95075
2022-09-04T02:35:53.510Z,95074
2022-09-04T02:39:18.756Z,95076
2022-09-04T02:42:43.877Z,95075
2022-09-04T02:46:09.100Z,95072
2022-09-04T02:49:34.283Z,95077
2022-09-04T02:52:59.453Z,95082
2022-09-04T02:56:24.604Z,95080
2022-09-04T02:59:49.793Z,95074
2022-09-04T03:03:14.962Z,95076
2022-09-04T03:06:40.126Z,95082
2022-09-04T03:10:05.304Z,95077
2022-09-04T03:13:30.495Z,95076
2022-09-04T03:16:55.665Z,95077
2022-09-04T03:20:20.875Z,95080
2022-09-04T03:23:46.112Z,95080
2022-09-04T03:27:11.302Z,95080
2022-09-04T03:30:36.469Z,95087
2022-09-04T03:34:01.641Z,95079
2022-09-04T03:37:26.854Z,95088
2022-09-04T03:40:52.043Z,95094
2022-09-04T03:44:17.226Z,95092
2022-09-04T03:47:42.435Z,95097
2022-09-04T03:51:07.605Z,95094
2022-09-04T03:54:32.798Z,95092
2022-09-04T03:57:57.978Z,95092
2022-09-04T04:01:25.048Z,95096
2022-09-04T04:04:52.386Z,95102
2022-09-04T04:08:17.653Z,95107
2022-09-04T04:11:43.642Z,95109
2022-09-04T04:15:07.951Z,95108
2022-09-04T04:18:33.151Z,95113
2022-09-04T04:21:58.378Z,95118
2022-09-04T04:25:23.564Z,95123
2022-09-04T04:28:48.737Z,95125
2022-09-04T04:32:13.946Z,95131
2022-09-04T04:35:39.139Z,95126
2022-09-04T04:39:04.333Z,95136
2022-09-04T04:42:29.506Z,95140
2022-09-04T04:45:54.704Z,95141
2022-09-04T04:49:19.900Z,95144
2022-09-04T04:52:45.090Z,95147
2022-09-04T04:56:10.294Z,95149
2022-09-04T04:59:35.470Z,95152
2022-09-04T05:03:00.706Z,95158
2022-09-04T05:06:25.835Z,95156
2022-09-04T05:09:51.040Z,95159
2022-09-04T05:13:16.353Z,95159
2022-09-04T05:16:41.528Z,95165
2022-09-04T05:20:06.740Z,95173
2022-09-04T05:23:31.915Z,95174
2022-09-04T05:26:57.055Z,95180
2022-09-04T05:30:22.281Z,95183
2022-09-04T05:33:47.496Z,95182
2022-09-04T05:37:12.780Z,95187
2022-09-04T05:40:38.020Z,95190
2022-09-04T05:44:03.247Z,95198
2022-09-04T05:47:30.621Z,95202
2022-09-04T05:50:53.608Z,95207
2022-09-04T05:54:18.803Z,95208
2022-09-04T05:57:44.034Z,95207
2022-09-04T06:01:09.276Z,95203
2022-09-04T06:04:34.490Z,95210
2022-09-04T06:07:59.660Z,95200
2022-09-04T06:11:24.876Z,95209
2022-09-04T06:14:50.057Z,95210
2022-09-04T06:18:15.250Z,95219
2022-09-04T06:21:40.417Z,95221
2022-09-04T06:25:05.623Z,95224
2022-09-04T06:28:30.773Z,95230
2022-09-04T06:31:55.957Z,95233
2022-09-04T06:35:21.124Z,95246
2022-09-04T06:38:46.306Z,95234
2022-09-04T06:42:11.490Z,95240
2022-09-04T06:45:36.698Z,95242
2022-09-04T06:49:01.876Z,95245
2022-09-04T06:52:27.096Z,95245
2022-09-04T06:55:52.234Z,95245
2022-09-04T06:59:17.406Z,95252
2022-09-04T07:02:42.741Z,95257
2022-09-04T07:06:07.811Z,95259
2022-09-04T07:09:32.988Z,95263
2022-09-04T07:12:58.168Z,95264
2022-09-04T07:16:23.352Z,95268
2022-09-04T07:19:48.514Z,95279
2022-09-04T07:23:13.679Z,95275
2022-09-04T07:26:38.860Z,95285
2022-09-04T07:30:04.044Z,95280
2022-09-04T07:33:29.218Z,95286
2022-09-04T07:36:54.434Z,95285
2022-09-04T07:40:19.593Z,95285
2022-09-04T07:43:44.784Z,95295
2022-09-04T07:47:09.962Z,95292
2022-09-04T07:50:35.162Z,95296
2022-09-04T07:54:00.391Z,95303
2022-09-04T07:57:25.577Z,95305
2022-09-04T08:00:50.769Z,95306
2022-09-04T08:04:15.946Z,95310
2022-09-04T08:07:41.142Z,95314
2022-09-04T08:11:06.335Z,95306
2022-09-04T08:14:31.484Z,95311
2022-09-04T08:17:56.657Z,95311
2022-09-04T08:21:21.855Z,95320
2022-09-04T08:24:47.019Z,95323
2022-09-04T08:28:12.242Z,95319
2022-09-04T08:31:37.443Z,95327
2022-09-04T08:35:02.632Z,95330
2022-09-04T08:38:27.811Z,95333
2022-09-04T08:41:53.015Z,95330
2022-09-04T08:45:18.220Z,95337
2022-09-04T08:48:43.476Z,95343
2022-09-04T08:52:08.657Z,95350
2022-09-04T08:55:33.846Z,95337
2022-09-04T08:58:59.046Z,95337
2022-09-04T09:02:24.301Z,95344
2022-09-04T09:05:49.416Z,95347
2022-09-04T09:09:14.585Z,95343
2022-09-04T09:12:41.134Z,95346
2022-09-04T09:16:04.944Z,95353
2022-09-04T09:19:30.116Z,95349
2022-09-04T09:22:55.309Z,95354
2022-09-04T09:26:20.485Z,95355
2022-09-04T09:29:45.665Z,95350
2022-09-04T09:33:10.838Z,95352
2022-09-04T09:36:36.023Z,95355
2022-09-04T09:40:01.266Z,95350
2022-09-04T09:43:26.463Z,95353
2022-09-04T09:46:51.595Z,95355
2022-09-04T09:50:16.791Z,95356
2022-09-04T09:53:46.428Z,95355
2022-09-04T09:57:07.139Z,95351
2022-09-04T10:00:32.323Z,95345
2022-09-04T10:03:57.503Z,95347
2022-09-04T10:07:22.673Z,95346
2022-09-04T10:10:47.857Z,95343
2022-09-04T10:14:13.059Z,95343
2022-09-04T10:17:38.220Z,95343
2022-09-04T10:21:03.512Z,95342
2022-09-04T10:24:28.713Z,95341
2022-09-04T10:27:53.886Z,95343
2022-09-04T10:31:19.105Z,95341
2022-09-04T10:34:44.315Z,95339
2022-09-04T10:38:09.492Z,95340
2022-09-04T10:41:34.750Z,95336
2022-09-04T10:45:00.027Z,95330
2022-09-04T10:48:28.383Z,95333
2022-09-04T10:51:50.396Z,95340
2022-09-04T10:55:15.569Z,95340
2022-09-04T10:58:40.768Z,95338
2022-09-04T11:02:05.999Z,95337
2022-09-04T11:05:31.174Z,95343
2022-09-04T11:08:56.391Z,95346
2022-09-04T11:12:21.580Z,95341
2022-09-04T11:15:46.782Z,95345
2022-09-04T11:19:11.998Z,95347
2022-09-04T11:22:37.196Z,95347
2022-09-04T11:26:02.460Z,95352
2022-09-04T11:29:27.687Z,95351
2022-09-04T11:32:52.888Z,95347
2022-09-04T11:36:18.093Z,95347
2022-09-04T11:39:43.391Z,95347
2022-09-04T11:43:08.510Z,95350
2022-09-04T11:46:33.743Z,95356
2022-09-04T11:49:58.985Z,95349
2022-09-04T11:53:24.235Z,95362
2022-09-04T11:56:49.391Z,95356
2022-09-04T12:00:14.604Z,95351
2022-09-04T12:03:39.862Z,95357
2022-09-04T12:07:05.057Z,95356
2022-09-04T12:10:30.272Z,95354
2022-09-04T12:13:55.525Z,95360
2022-09-04T12:17:20.737Z,95360
2022-09-04T12:20:45.958Z,95359
2022-09-04T12:24:11.186Z,95354
2022-09-04T12:27:36.412Z,95354
2022-09-04T12:31:01.590Z,95349
2022-09-04T12:34:26.819Z,95355
2022-09-04T12:37:52.031Z,95356
2022-09-04T12:41:17.226Z,95352
2022-09-04T12:44:42.432Z,95356
2022-09-04T12:48:07.688Z,95353
2022-09-04T12:51:32.908Z,95354
2022-09-04T12:54:58.106Z,95364
2022-09-04T12:58:23.312Z,95365
2022-09-04T13:01:48.637Z,95366
2022-09-04T13:05:13.769Z,95372
2022-09-04T13:08:38.955Z,95370
2022-09-04T13:12:04.132Z,95381
2022-09-04T13:15:29.341Z,95377
2022-09-04T13:18:54.578Z,95380
2022-09-04T13:22:19.775Z,95384
2022-09-04T13:25:45.037Z,95381
2022-09-04T13:29:10.251Z,95385
2022-09-04T13:32:35.490Z,95386
2022-09-04T13:36:00.672Z,95385
2022-09-04T13:39:25.902Z,95385
2022-09-04T13:42:52.467Z,95382
2022-09-04T13:46:16.337Z,95387
2022-09-04T13:49:41.506Z,95391
2022-09-04T13:53:06.719Z,95386
2022-09-04T13:56:31.932Z,95390
2022-09-04T13:59:57.180Z,95392
2022-09-04T14:03:22.374Z,95389
2022-09-04T14:06:47.599Z,95385
2022-09-04T14:10:12.768Z,95389
2022-09-04T14:13:38.171Z,95394
2022-09-04T14:17:03.246Z,95396
2022-09-04T14:20:28.458Z,95395
2022-09-04T14:23:53.666Z,95403
2022-09-04T14:27:18.864Z,95398
2022-09-04T15:07:10.660Z,95419
2022-09-04T15:10:20.872Z,95413
2022-09-04T15:13:46.098Z,95415
2022-09-04T15:17:11.273Z,95413
2022-09-04T15:20:36.570Z,95411
2022-09-04T15:24:01.771Z,95413
2022-09-04T15:27:27.030Z,95415
2022-09-04T15:30:52.303Z,95419
2022-09-04T15:34:20.576Z,95420
2022-09-04T15:37:44.786Z,95417
2022-09-04T15:41:16.916Z,95414
2022-09-04T15:44:35.328Z,95411
2022-09-04T15:48:00.493Z,95420
2022-09-04T15:51:55.775Z,95418
2022-09-04T15:55:22.927Z,95423
2022-09-04T15:58:48.161Z,95426
2022-09-04T16:02:16.729Z,95433
2022-09-04T16:05:41.960Z,95432
2022-09-04T16:09:07.188Z,95436
2022-09-04T16:12:32.425Z,95437
2022-09-04T16:16:00.151Z,95431
2022-09-04T16:19:23.029Z,95431
2022-09-04T16:22:48.279Z,95430
2022-09-04T16:26:13.455Z,95430
2022-09-04T16:29:38.639Z,95432
2022-09-04T16:33:03.848Z,95435
2022-09-04T16:36:29.009Z,95430
2022-09-04T16:39:54.263Z,95438
2022-09-04T16:43:19.410Z,95437
2022-09-04T16:46:44.638Z,95441
2022-09-04T16:50:09.823Z,95437
2022-09-04T16:53:35.090Z,95436
2022-09-04T16:57:25.156Z,95434
2022-09-04T17:00:50.330Z,95434
2022-09-04T17:04:15.788Z,95436
2022-09-04T17:07:40.968Z,95440
2022-09-04T17:11:06.151Z,95440
2022-09-04T17:14:31.614Z,95443
2022-09-04T17:17:56.808Z,95443
2022-09-04T17:23:30.004Z,95438
2022-09-04T17:29:05.417Z,95445
2022-09-04T17:29:05.601Z,95443
2022-09-04T17:31:38.040Z,95441
2022-09-04T17:36:47.932Z,95441
2022-09-04T17:40:44.940Z,95442
2022-09-04T17:42:05.332Z,95447
2022-09-04T17:45:18.825Z,95444
2022-09-04T17:48:44.000Z,95455
2022-09-04T17:52:09.247Z,95454
2022-09-04T17:55:34.907Z,95458
2022-09-04T17:58:59.899Z,95457
2022-09-04T18:02:25.563Z,95460
2022-09-04T18:05:53.464Z,95465
2022-09-04T18:09:18.720Z,95467
2022-09-04T18:12:42.236Z,95469
2022-09-04T18:16:07.453Z,95475
2022-09-04T18:19:32.672Z,95478
2022-09-04T18:22:57.947Z,95480
2022-09-04T18:26:23.239Z,95487
2022-09-04T18:30:17.482Z,95489
2022-09-04T18:37:05.780Z,95493
2022-09-04T18:37:15.248Z,95492
2022-09-04T18:40:04.472Z,95500
2022-09-04T18:47:59.902Z,95509
2022-09-04T18:50:27.253Z,95510
2022-09-04T18:51:01.276Z,95512
2022-09-04T18:53:45.497Z,95518
2022-09-04T18:57:10.816Z,95521
2022-09-04T19:00:36.079Z,95523
2022-09-04T19:04:01.383Z,95520
2022-09-04T19:07:26.697Z,95522
2022-09-04T19:10:51.943Z,95527
2022-09-04T19:14:17.176Z,95523
2022-09-04T19:17:42.434Z,95527
2022-09-04T19:21:07.733Z,95535
2022-09-04T19:24:34.549Z,95532
2022-09-04T19:27:58.237Z,95540
2022-09-04T19:31:23.600Z,95540
2022-09-04T19:34:48.794Z,95538
2022-09-04T19:40:13.748Z,95532
2022-09-04T19:44:17.996Z,95539
2022-09-04T19:46:10.103Z,95537
2022-09-04T19:48:30.029Z,95535
2022-09-04T19:53:20.756Z,95543
2022-09-04T19:55:24.221Z,95538
2022-09-04T19:58:45.642Z,95535
2022-09-04T20:02:10.877Z,95536
2022-09-04T20:05:36.028Z,95540
2022-09-04T20:09:01.206Z,95538
2022-09-04T20:12:26.394Z,95541
2022-09-04T20:15:51.563Z,95536
2022-09-04T20:19:20.251Z,95536
2022-09-04T20:22:41.962Z,95537
2022-09-04T20:26:07.139Z,95540
2022-09-04T20:29:32.359Z,95542
2022-09-04T20:32:57.584Z,95540
2022-09-04T20:36:22.774Z,95545
2022-09-04T20:39:48.018Z,95545
2022-09-04T20:43:13.166Z,95540
2022-09-04T20:48:51.129Z,95542
2022-09-04T20:52:47.151Z,95544
2022-09-04T20:53:28.911Z,95542
2022-09-04T20:57:43.596Z,95547
2022-09-04T21:03:15.954Z,95542
2022-09-04T21:03:44.575Z,95553
2022-09-04T21:07:09.444Z,95546
2022-09-04T21:10:34.640Z,95547
2022-09-04T21:13:59.863Z,95547
2022-09-04T21:17:29.878Z,95546
2022-09-04T21:20:59.264Z,95553
2022-09-04T21:24:15.533Z,95553
2022-09-04T21:27:40.714Z,95552
2022-09-04T21:31:05.909Z,95557
2022-09-04T21:34:31.098Z,95562
2022-09-04T21:37:56.294Z,95558
2022-09-04T21:41:21.478Z,95561
2022-09-04T21:44:48.694Z,95566
2022-09-04T21:48:17.867Z,95566
2022-09-04T21:51:37.057Z,95570
2022-09-04T21:55:39.080Z,95571
2022-09-04T22:02:25.711Z,95572
2022-09-04T22:02:33.951Z,95573
2022-09-04T22:05:17.796Z,95576
2022-09-04T22:12:07.752Z,95576
2022-09-04T22:13:28.169Z,95572
2022-09-04T22:15:33.330Z,95569
2022-09-04T22:18:58.536Z,95572
2022-09-04T22:22:23.732Z,95567
2022-09-04T22:25:48.923Z,95571
2022-09-04T22:29:14.104Z,95567
2022-09-04T22:32:39.329Z,95571
2022-09-04T22:36:04.532Z,95569
2022-09-04T22:39:31.015Z,95567
2022-09-04T22:42:54.907Z,95567
2022-09-04T22:46:30.862Z,95574
2022-09-04T22:49:45.303Z,95573
2022-09-04T22:53:10.467Z,95575
2022-09-04T22:56:35.663Z,95579
2022-09-04T23:00:00.850Z,95577
2022-09-04T23:03:26.465Z,95576
2022-09-04T23:08:27.720Z,95579
2022-09-04T23:13:45.831Z,95581
2022-09-04T23:13:55.556Z,95578
2022-09-04T23:17:06.790Z,95584
2022-09-04T23:21:44.921Z,95579
2022-09-04T23:26:40.335Z,95572
2022-09-04T23:27:28.222Z,95573
2022-09-04T23:30:47.505Z,95568
2022-09-04T23:34:12.704Z,95580
2022-09-04T23:37:37.882Z,95581
2022-09-04T23:41:03.055Z,95583
2022-09-04T23:44:28.279Z,95583
2022-09-04T23:47:53.449Z,95588
2022-09-04T23:51:18.631Z,95583
2022-09-04T23:54:43.805Z,95583
2022-09-04T23:58:09.001Z,95581
